Time;durP1;ratioP1;P1;durP2;ratioP2;P2;SDS_P1;SDS_P2;PMS_P1;PMS_P2;Temp;Humidity;BMP_temperature;BMP_pressure;BME280_temperature;BME280_humidity;BME280_pressure;Samples;Min_cycle;Max_cycle;Signal;HPM_P1;HPM_P2
2021/12/09 00:02:12;;;;;;;18.08;10.77;;;4.80;99.90;;;;;;5057856;28;20458;-65
2021/12/09 00:04:38;;;;;;;22.92;11.18;;;4.80;99.90;;;;;;5056476;28;20025;-65
2021/12/09 00:07:04;;;;;;;17.73;10.10;;;4.70;99.90;;;;;;5056473;28;20543;-65
2021/12/09 00:09:31;;;;;;;22.67;10.65;;;4.70;99.90;;;;;;5056357;28;20036;-65
2021/12/09 00:11:58;;;;;;;20.30;10.60;;;4.70;99.90;;;;;;5056405;28;20055;-65
2021/12/09 00:14:29;;;;;;;21.92;10.00;;;4.60;99.90;;;;;;5056322;28;20078;-65
2021/12/09 00:16:58;;;;;;;15.43;8.73;;;4.60;99.90;;;;;;5057144;28;20029;-65
2021/12/09 00:19:25;;;;;;;16.55;9.80;;;4.70;99.90;;;;;;5038236;28;20063;-66
2021/12/09 00:21:51;;;;;;;16.65;10.10;;;4.60;99.90;;;;;;5037884;28;20040;-65
2021/12/09 00:24:17;;;;;;;19.25;10.18;;;4.60;99.90;;;;;;5056149;28;20033;-65
2021/12/09 00:26:44;;;;;;;19.65;9.52;;;4.60;99.90;;;;;;5055821;28;20474;-64
2021/12/09 00:29:11;;;;;;;17.98;9.50;;;4.70;99.90;;;;;;5055832;28;20039;-65
2021/12/09 00:31:37;;;;;;;18.75;9.10;;;4.70;99.90;;;;;;5055888;28;20075;-65
2021/12/09 00:34:04;;;;;;;16.15;9.38;;;4.60;99.90;;;;;;5055724;28;20029;-65
2021/12/09 00:36:39;;;;;;;18.38;9.55;;;4.50;99.90;;;;;;5055960;28;20025;-65
2021/12/09 00:39:07;;;;;;;16.02;9.82;;;4.50;99.90;;;;;;5056239;28;20196;-65
2021/12/09 00:41:33;;;;;;;16.67;9.38;;;4.50;99.90;;;;;;5037978;28;20025;-65
2021/12/09 00:43:59;;;;;;;15.93;8.90;;;4.40;99.90;;;;;;5055827;28;20501;-65
2021/12/09 00:46:25;;;;;;;20.40;9.57;;;4.40;99.90;;;;;;5037785;28;20041;-65
2021/12/09 00:48:51;;;;;;;21.90;9.70;;;4.40;99.90;;;;;;5055563;28;20099;-65
2021/12/09 00:51:16;;;;;;;15.60;9.37;;;4.40;99.90;;;;;;5055911;28;20479;-65
2021/12/09 00:53:42;;;;;;;19.58;9.60;;;4.40;99.90;;;;;;5055425;28;20056;-65
2021/12/09 00:56:11;;;;;;;20.10;9.30;;;4.40;99.90;;;;;;5055618;28;20483;-65
2021/12/09 00:58:38;;;;;;;15.57;9.40;;;4.40;99.90;;;;;;5055355;28;20040;-65
2021/12/09 01:01:06;;;;;;;18.75;9.18;;;4.40;99.90;;;;;;5037276;28;20481;-65
2021/12/09 01:03:33;;;;;;;17.23;8.68;;;4.30;99.90;;;;;;5037034;28;20021;-64
2021/12/09 01:05:59;;;;;;;22.67;8.85;;;4.30;99.90;;;;;;5055538;28;20350;-64
2021/12/09 01:08:24;;;;;;;20.83;8.80;;;4.30;99.90;;;;;;5055310;28;20028;-65
2021/12/09 01:10:50;;;;;;;23.13;8.90;;;4.20;99.90;;;;;;5056183;28;20100;-65
2021/12/09 01:13:16;;;;;;;20.77;8.68;;;4.30;99.90;;;;;;5055039;28;20025;-65
2021/12/09 01:15:42;;;;;;;17.23;8.87;;;4.20;99.90;;;;;;5055782;28;20071;-65
2021/12/09 01:18:07;;;;;;;22.83;9.83;;;4.10;99.90;;;;;;5054977;28;20029;-65
2021/12/09 01:20:33;;;;;;;19.80;9.80;;;4.10;99.90;;;;;;5054993;28;20036;-65
2021/12/09 01:23:01;;;;;;;18.67;9.63;;;4.00;99.90;;;;;;5054515;28;20044;-65
2021/12/09 01:25:27;;;;;;;18.42;8.85;;;4.00;99.90;;;;;;5055095;28;20025;-65
2021/12/09 01:27:56;;;;;;;18.38;8.77;;;4.00;99.90;;;;;;5054933;28;20029;-65
2021/12/09 01:30:23;;;;;;;19.58;8.77;;;3.90;99.90;;;;;;5054850;28;20051;-65
2021/12/09 01:32:52;;;;;;;18.17;9.32;;;3.90;99.90;;;;;;5054615;28;20025;-65
2021/12/09 01:35:26;;;;;;;21.35;9.45;;;3.80;99.90;;;;;;5054600;28;20017;-65
2021/12/09 01:37:55;;;;;;;20.33;9.27;;;3.80;99.90;;;;;;5054912;28;20021;-65
2021/12/09 01:40:23;;;;;;;22.95;9.57;;;3.70;99.90;;;;;;5054640;28;20028;-65
2021/12/09 01:42:49;;;;;;;20.60;9.25;;;3.80;99.90;;;;;;5054599;28;20028;-65
2021/12/09 01:45:15;;;;;;;19.02;8.98;;;3.70;99.90;;;;;;5054521;28;20036;-65
2021/12/09 01:47:40;;;;;;;17.67;8.97;;;3.70;99.90;;;;;;5054788;28;20029;-65
2021/12/09 01:50:07;;;;;;;19.23;9.03;;;3.70;99.90;;;;;;5036916;28;20037;-65
2021/12/09 01:52:33;;;;;;;19.25;8.68;;;3.70;99.90;;;;;;5054350;28;20477;-64
2021/12/09 01:54:59;;;;;;;17.73;8.35;;;3.70;99.90;;;;;;5054499;28;20025;-64
2021/12/09 01:57:25;;;;;;;22.55;9.00;;;3.80;99.90;;;;;;5054294;28;20024;-64
2021/12/09 01:59:50;;;;;;;19.65;8.40;;;3.70;99.90;;;;;;5054375;28;20029;-64
2021/12/09 02:02:16;;;;;;;19.93;8.20;;;3.70;99.90;;;;;;5054229;28;20024;-65
2021/12/09 02:04:43;;;;;;;17.57;8.97;;;3.70;99.90;;;;;;5054232;28;20100;-65
2021/12/09 02:07:09;;;;;;;;;;;3.70;99.90;;;;;;5054646;28;20444;-65
2021/12/09 02:09:35;;;;;;;23.40;9.93;;;3.70;99.90;;;;;;5053958;28;19912;-65
2021/12/09 02:12:03;;;;;;;17.98;8.63;;;3.60;99.90;;;;;;5053969;28;20413;-63
2021/12/09 02:14:29;;;;;;;15.25;7.43;;;3.60;99.90;;;;;;5053681;28;20033;-64
2021/12/09 02:16:55;;;;;;;19.60;8.93;;;3.60;99.90;;;;;;5053460;28;20021;-65
2021/12/09 02:19:21;;;;;;;16.00;7.60;;;3.60;99.90;;;;;;5054209;28;20373;-65
2021/12/09 02:21:47;;;;;;;15.63;7.30;;;3.80;99.90;;;;;;5053857;28;20044;-65
2021/12/09 02:24:15;;;;;;;16.05;6.88;;;3.80;99.90;;;;;;5054123;28;20406;-65
2021/12/09 02:26:45;;;;;;;13.48;7.15;;;3.70;99.90;;;;;;5035977;28;20485;-65
2021/12/09 02:29:12;;;;;;;19.83;6.85;;;3.60;99.90;;;;;;5054237;28;20079;-65
2021/12/09 02:31:39;;;;;;;15.10;7.00;;;3.60;99.90;;;;;;5054074;28;20064;-66
2021/12/09 02:34:06;;;;;;;17.38;7.25;;;3.70;99.90;;;;;;5054266;28;20025;-64
2021/12/09 02:36:37;;;;;;;16.23;7.30;;;3.60;99.90;;;;;;5054237;28;20044;-65
2021/12/09 02:39:05;;;;;;;18.23;6.97;;;3.60;99.90;;;;;;5053603;28;20055;-66
2021/12/09 02:41:33;;;;;;;19.23;7.65;;;3.60;99.90;;;;;;5053318;28;20047;-65
2021/12/09 02:44:02;;;;;;;20.60;7.70;;;3.70;99.90;;;;;;5053714;28;20040;-65
2021/12/09 02:46:29;;;;;;;21.02;7.72;;;3.70;99.90;;;;;;5053375;28;20021;-64
2021/12/09 02:48:54;;;;;;;;;;;3.70;99.90;;;;;;5035889;28;20032;-65
2021/12/09 02:51:21;;;;;;;26.85;9.25;;;3.80;99.90;;;;;;5053421;28;20281;-64
2021/12/09 02:53:46;;;;;;;;;;;4.00;99.90;;;;;;5053681;28;20052;-65
2021/12/09 02:56:13;;;;;;;18.35;6.45;;;4.00;99.90;;;;;;5035436;28;19905;-65
2021/12/09 02:58:39;;;;;;;12.93;6.65;;;3.90;99.90;;;;;;5053426;28;20021;-65
2021/12/09 03:01:16;;;;;;;14.43;6.85;;;3.90;99.90;;;;;;5035073;28;20029;-65
2021/12/09 03:03:50;;;;;;;17.65;6.30;;;3.90;99.90;;;;;;5053505;28;20032;-65
2021/12/09 03:06:18;;;;;;;15.85;6.15;;;3.90;99.90;;;;;;5053457;28;20053;-65
2021/12/09 03:08:44;;;;;;;12.90;6.18;;;3.90;99.90;;;;;;5053695;28;20050;-65
2021/12/09 03:11:16;;;;;;;12.10;5.70;;;3.80;99.90;;;;;;5053349;28;20031;-65
2021/12/09 03:13:44;;;;;;;17.85;5.97;;;3.80;99.90;;;;;;5053887;28;20470;-65
2021/12/09 03:16:11;;;;;;;13.93;5.80;;;3.90;99.90;;;;;;5053510;28;20496;-65
2021/12/09 03:18:50;;;;;;;15.35;5.68;;;3.90;99.90;;;;;;5053509;28;20017;-64
2021/12/09 03:21:25;;;;;;;19.88;8.48;;;3.90;99.90;;;;;;5053118;28;20025;-65
2021/12/09 03:23:51;;;;;;;14.32;7.03;;;3.80;99.90;;;;;;5053155;28;20111;-64
2021/12/09 03:26:23;;;;;;;27.55;11.38;;;3.70;99.90;;;;;;5035232;28;20021;-65
2021/12/09 03:28:48;;;;;;;27.05;11.73;;;3.70;99.90;;;;;;5039506;28;20106;-64
2021/12/09 03:31:14;;;;;;;19.63;7.50;;;3.60;99.90;;;;;;5057093;28;20037;-63
2021/12/09 03:33:39;;;;;;;10.83;5.53;;;3.60;99.90;;;;;;5056911;28;20025;-64
2021/12/09 03:36:07;;;;;;;49.20;21.23;;;3.60;99.90;;;;;;5057258;28;20105;-64
2021/12/09 03:38:35;;;;;;;17.50;7.68;;;3.60;99.90;;;;;;5057213;28;20111;-64
2021/12/09 03:41:00;;;;;;;;;;;3.70;99.90;;;;;;5057299;28;20045;-64
2021/12/09 03:43:26;;;;;;;16.50;6.35;;;3.80;99.90;;;;;;5038799;28;19904;-64
2021/12/09 03:45:55;;;;;;;18.03;6.70;;;3.90;99.90;;;;;;5056762;28;20108;-64
2021/12/09 03:48:22;;;;;;;12.90;4.82;;;3.90;99.90;;;;;;5056566;28;20053;-65
2021/12/09 03:50:48;;;;;;;12.35;5.30;;;3.80;99.90;;;;;;5056847;28;20031;-65
2021/12/09 03:53:14;;;;;;;14.82;6.38;;;3.80;99.90;;;;;;5056498;28;20025;-65
2021/12/09 03:55:40;;;;;;;10.47;5.77;;;3.80;99.90;;;;;;5056488;28;20029;-65
2021/12/09 03:58:07;;;;;;;14.52;6.30;;;3.70;99.90;;;;;;5056545;28;20025;-65
2021/12/09 04:00:33;;;;;;;13.25;5.95;;;3.70;99.90;;;;;;5056535;28;20021;-65
2021/12/09 04:02:58;;;;;;;21.23;5.72;;;3.70;99.90;;;;;;5056310;28;20562;-64
2021/12/09 04:05:24;;;;;;;16.87;6.77;;;3.70;99.90;;;;;;5038677;28;20040;-65
2021/12/09 04:07:51;;;;;;;15.68;5.85;;;3.70;99.90;;;;;;5056580;28;20287;-65
2021/12/09 04:10:17;;;;;;;10.05;5.13;;;3.70;99.90;;;;;;5056296;28;20025;-65
2021/12/09 04:12:42;;;;;;;13.15;6.57;;;3.70;99.90;;;;;;5056389;28;20029;-65
2021/12/09 04:15:09;;;;;;;13.38;5.50;;;3.70;99.90;;;;;;5056181;28;20024;-65
2021/12/09 04:17:35;;;;;;;16.38;5.80;;;3.70;99.90;;;;;;5038234;28;20040;-65
2021/12/09 04:20:06;;;;;;;14.40;6.03;;;3.60;99.90;;;;;;5056453;28;20021;-65
2021/12/09 04:22:32;;;;;;;15.93;5.63;;;3.60;99.90;;;;;;5038011;28;20029;-65
2021/12/09 04:24:58;;;;;;;12.48;5.60;;;3.60;99.90;;;;;;5056259;28;20033;-65
2021/12/09 04:27:25;;;;;;;16.58;6.20;;;3.60;99.90;;;;;;5056581;28;20036;-65
2021/12/09 04:29:51;;;;;;;11.75;5.63;;;3.60;99.90;;;;;;5056070;28;20025;-65
2021/12/09 04:32:17;;;;;;;14.30;5.80;;;3.60;99.90;;;;;;5055918;28;20025;-65
2021/12/09 04:34:44;;;;;;;18.08;6.50;;;3.50;99.90;;;;;;5056390;28;20021;-65
2021/12/09 04:37:10;;;;;;;12.85;6.45;;;3.50;99.90;;;;;;5055997;28;20013;-65
2021/12/09 04:39:36;;;;;;;16.63;6.38;;;3.40;99.90;;;;;;5037191;28;20018;-65
2021/12/09 04:42:03;;;;;;;14.25;6.40;;;3.40;99.90;;;;;;5056300;28;20032;-65
2021/12/09 04:44:29;;;;;;;21.63;6.82;;;3.30;99.90;;;;;;5055822;28;20025;-65
2021/12/09 04:46:56;;;;;;;18.97;5.97;;;3.30;99.90;;;;;;5055862;28;20033;-65
2021/12/09 04:49:22;;;;;;;14.95;5.75;;;3.20;99.90;;;;;;5056087;28;20056;-65
2021/12/09 04:51:48;;;;;;;14.23;5.78;;;3.20;99.90;;;;;;5055768;28;20039;-65
2021/12/09 04:54:14;;;;;;;13.82;5.60;;;3.20;99.90;;;;;;5055929;28;20036;-64
2021/12/09 04:56:39;;;;;;;13.17;6.57;;;3.20;99.90;;;;;;5056460;28;20095;-65
2021/12/09 04:59:05;;;;;;;15.47;6.37;;;3.10;99.90;;;;;;5056213;28;20028;-65
2021/12/09 05:01:31;;;;;;;14.33;6.17;;;3.10;99.90;;;;;;5055947;28;20017;-64
2021/12/09 05:03:57;;;;;;;13.82;5.57;;;3.10;99.90;;;;;;5055877;28;20520;-64
2021/12/09 05:06:22;;;;;;;13.77;6.77;;;3.00;99.90;;;;;;5056160;28;20033;-65
2021/12/09 05:08:49;;;;;;;21.90;6.23;;;3.00;99.90;;;;;;5055664;28;20025;-65
2021/12/09 05:11:48;;;;;;;15.35;6.15;;;3.00;99.90;;;;;;5056290;28;20036;-64
2021/12/09 05:14:15;;;;;;;15.68;6.90;;;3.00;99.90;;;;;;5056071;28;20176;-62
2021/12/09 05:16:42;;;;;;;17.58;7.47;;;3.00;99.90;;;;;;5037775;28;20058;-64
2021/12/09 05:19:08;;;;;;;17.30;7.28;;;3.00;99.90;;;;;;5055747;28;20021;-64
2021/12/09 05:21:37;;;;;;;15.73;6.47;;;3.00;99.90;;;;;;5056274;28;20025;-64
2021/12/09 05:24:13;;;;;;;17.08;7.07;;;3.00;99.90;;;;;;5037494;28;20033;-64
2021/12/09 05:26:49;;;;;;;14.13;6.28;;;3.00;99.90;;;;;;5055695;28;20039;-65
2021/12/09 05:29:16;;;;;;;14.90;6.65;;;3.00;99.90;;;;;;5055597;28;20037;-63
2021/12/09 05:32:17;;;;;;;24.90;8.60;;;3.10;99.90;;;;;;5055332;28;20433;-63
2021/12/09 05:34:37;;;;;;;21.42;6.22;;;3.10;99.90;;;;;;5051198;28;20033;-64
2021/12/09 05:37:07;;;;;;;14.90;6.55;;;3.00;99.90;;;;;;5055296;28;20389;-64
2021/12/09 05:39:34;;;;;;;18.02;7.20;;;3.30;99.90;;;;;;5055144;28;20393;-66
2021/12/09 05:42:00;;;;;;;12.45;6.55;;;3.40;99.90;;;;;;5054739;28;20025;-64
2021/12/09 05:44:26;;;;;;;15.90;6.47;;;3.40;99.90;;;;;;5054928;28;20536;-64
2021/12/09 05:46:52;;;;;;;12.70;6.50;;;3.30;99.90;;;;;;5055450;28;20033;-64
2021/12/09 05:49:19;;;;;;;18.88;7.22;;;3.20;99.90;;;;;;5054823;28;20271;-64
2021/12/09 05:51:45;;;;;;;14.20;6.50;;;3.20;99.90;;;;;;5055205;28;20029;-65
2021/12/09 05:54:11;;;;;;;15.35;6.20;;;3.20;99.90;;;;;;5054917;28;20090;-63
2021/12/09 05:56:37;;;;;;;;;;;3.30;99.90;;;;;;5054943;28;20029;-63
2021/12/09 05:59:04;;;;;;;17.88;6.72;;;3.30;99.90;;;;;;5036885;28;19927;-63
2021/12/09 06:01:29;;;;;;;13.73;6.47;;;3.30;99.90;;;;;;5054556;28;20102;-64
2021/12/09 06:03:55;;;;;;;13.63;7.43;;;3.40;99.90;;;;;;5054592;28;20478;-64
2021/12/09 06:06:21;;;;;;;15.93;7.70;;;3.30;99.90;;;;;;5054484;28;20048;-64
2021/12/09 06:08:47;;;;;;;18.92;6.93;;;3.40;99.90;;;;;;5054326;28;20025;-63
2021/12/09 06:11:12;;;;;;;14.20;7.83;;;3.30;99.90;;;;;;5054413;28;20099;-64
2021/12/09 06:13:39;;;;;;;13.17;6.37;;;3.30;99.90;;;;;;5054489;28;20032;-65
2021/12/09 06:16:07;;;;;;;16.30;7.30;;;3.30;99.90;;;;;;5054233;28;20017;-64
2021/12/09 06:18:33;;;;;;;14.88;6.82;;;3.30;99.90;;;;;;5054526;28;20030;-63
2021/12/09 06:20:59;;;;;;;15.02;6.90;;;3.30;99.90;;;;;;5054501;28;20477;-64
2021/12/09 06:23:25;;;;;;;20.55;7.25;;;3.30;99.90;;;;;;5053948;28;20186;-64
2021/12/09 06:25:51;;;;;;;15.77;6.30;;;3.30;99.90;;;;;;5053905;28;20025;-64
2021/12/09 06:28:18;;;;;;;12.23;6.00;;;3.30;99.90;;;;;;5054066;28;20389;-64
2021/12/09 06:30:45;;;;;;;15.77;6.40;;;3.30;99.90;;;;;;5054012;28;20063;-65
2021/12/09 06:33:11;;;;;;;15.52;6.10;;;3.30;99.90;;;;;;5054079;28;20047;-65
2021/12/09 06:35:40;;;;;;;17.58;6.40;;;3.30;99.90;;;;;;5054727;28;20025;-68
2021/12/09 06:38:12;;;;;;;16.48;6.68;;;3.30;99.90;;;;;;5040747;28;20111;-68
2021/12/09 06:40:37;;;;;;;15.88;8.02;;;3.30;99.90;;;;;;5054269;28;20024;-67
2021/12/09 06:43:03;;;;;;;15.88;5.78;;;3.30;99.90;;;;;;5053466;28;20029;-68
2021/12/09 06:45:29;;;;;;;14.73;6.83;;;3.40;99.90;;;;;;5053434;28;20067;-68
2021/12/09 06:47:55;;;;;;;18.45;6.88;;;3.40;99.90;;;;;;5053397;28;20082;-68
2021/12/09 06:50:21;;;;;;;19.50;8.70;;;3.40;99.90;;;;;;5053734;28;20432;-69
2021/12/09 06:52:47;;;;;;;;;;;3.50;99.90;;;;;;5037763;28;20397;-67
2021/12/09 06:55:18;;;;;;;16.02;6.57;;;3.50;99.90;;;;;;5037838;28;19949;-67
2021/12/09 06:57:44;;;;;;;14.57;7.05;;;3.50;99.90;;;;;;5056165;28;20438;-67
2021/12/09 07:00:17;;;;;;;15.20;6.70;;;3.60;99.90;;;;;;5054784;28;20437;-67
2021/12/09 07:02:44;;;;;;;12.80;6.78;;;3.70;99.90;;;;;;5036362;28;20116;-66
2021/12/09 07:05:12;;;;;;;12.90;6.93;;;3.70;99.90;;;;;;5054671;28;20074;-65
2021/12/09 07:07:38;;;;;;;16.58;8.13;;;3.70;99.90;;;;;;5054930;28;20025;-66
2021/12/09 07:10:12;;;;;;;20.70;7.63;;;3.80;99.90;;;;;;5056245;28;20051;-67
2021/12/09 07:12:39;;;;;;;17.67;7.93;;;3.80;99.90;;;;;;5055426;28;20111;-66
2021/12/09 07:15:07;;;;;;;15.02;7.40;;;3.80;99.90;;;;;;5056921;28;20393;-68
2021/12/09 07:17:33;;;;;;;17.45;7.55;;;3.80;99.90;;;;;;5057418;28;20501;-67
2021/12/09 07:19:59;;;;;;;18.15;8.68;;;3.80;99.90;;;;;;5039324;28;20028;-67
2021/12/09 07:22:25;;;;;;;16.07;8.07;;;3.80;99.90;;;;;;5056951;28;20045;-67
2021/12/09 07:24:50;;;;;;;17.73;8.30;;;3.80;99.90;;;;;;5054942;28;20025;-66
2021/12/09 07:27:16;;;;;;;19.10;8.47;;;3.70;99.90;;;;;;5055001;28;20073;-66
2021/12/09 07:29:43;;;;;;;15.60;7.70;;;3.70;99.90;;;;;;5055008;28;20096;-66
2021/12/09 07:32:09;;;;;;;17.25;8.50;;;3.70;99.90;;;;;;5054149;28;20074;-67
2021/12/09 07:34:34;;;;;;;15.88;8.43;;;3.80;99.90;;;;;;5054756;28;20025;-66
2021/12/09 07:37:04;;;;;;;20.67;8.60;;;3.80;99.90;;;;;;5055226;28;20021;-66
2021/12/09 07:39:30;;;;;;;19.65;7.78;;;3.80;99.90;;;;;;5055343;28;20013;-66
2021/12/09 07:41:56;;;;;;;18.48;8.23;;;3.80;99.90;;;;;;5037889;28;20335;-66
2021/12/09 07:44:23;;;;;;;18.83;8.53;;;3.80;99.90;;;;;;5055431;28;20033;-67
2021/12/09 07:46:48;;;;;;;20.40;8.73;;;3.80;99.90;;;;;;5055386;28;20098;-67
2021/12/09 07:49:15;;;;;;;21.40;8.23;;;4.00;99.90;;;;;;5055644;28;20056;-67
2021/12/09 07:51:41;;;;;;;19.95;8.55;;;3.90;99.90;;;;;;5054888;28;20859;-67
2021/12/09 07:54:07;;;;;;;21.50;10.13;;;3.90;99.90;;;;;;5055140;28;20068;-66
2021/12/09 07:56:33;;;;;;;16.23;8.33;;;3.90;99.90;;;;;;5037144;28;20025;-66
2021/12/09 07:58:59;;;;;;;17.67;9.47;;;3.90;99.90;;;;;;5054411;28;20411;-66
2021/12/09 08:01:25;;;;;;;;;;;3.90;99.90;;;;;;5054976;28;20259;-66
2021/12/09 08:03:50;;;;;;;18.10;8.50;;;3.90;99.90;;;;;;5036491;28;20277;-67
2021/12/09 08:06:16;;;;;;;26.30;12.17;;;3.90;99.90;;;;;;5055341;28;20104;-66
2021/12/09 08:08:42;;;;;;;17.07;8.43;;;3.90;99.90;;;;;;5055132;28;20032;-67
2021/12/09 08:11:08;;;;;;;16.65;9.50;;;3.90;99.90;;;;;;5055041;28;20029;-66
2021/12/09 08:13:34;;;;;;;18.73;9.60;;;4.00;99.90;;;;;;5038158;28;20118;-67
2021/12/09 08:16:00;;;;;;;17.67;8.30;;;4.00;99.90;;;;;;5058874;28;20077;-67
2021/12/09 08:18:27;;;;;;;19.05;8.38;;;4.10;99.90;;;;;;5058713;28;20025;-66
2021/12/09 08:20:59;;;;;;;18.80;8.45;;;4.10;99.90;;;;;;5058916;28;20384;-66
2021/12/09 08:23:25;;;;;;;20.17;9.15;;;4.10;99.90;;;;;;5058814;28;20041;-67
2021/12/09 08:25:52;;;;;;;15.85;7.78;;;4.10;99.90;;;;;;5058668;28;20084;-67
2021/12/09 08:28:18;;;;;;;;;;;4.20;99.90;;;;;;5041530;28;20497;-67
2021/12/09 08:30:44;;;;;;;19.15;7.88;;;4.20;99.90;;;;;;5058696;28;19905;-67
2021/12/09 08:33:10;;;;;;;20.33;9.43;;;4.20;99.90;;;;;;5058341;28;20121;-67
2021/12/09 08:35:37;;;;;;;19.77;8.93;;;4.20;99.90;;;;;;5058591;28;20513;-67
2021/12/09 08:38:07;;;;;;;14.32;8.77;;;4.20;99.90;;;;;;5057895;28;20147;-67
2021/12/09 08:40:33;;;;;;;18.83;9.00;;;4.30;99.90;;;;;;5058413;28;20028;-67
2021/12/09 08:42:59;;;;;;;12.95;8.23;;;4.30;99.90;;;;;;5040219;28;20028;-67
2021/12/09 08:45:25;;;;;;;17.40;8.52;;;4.20;99.90;;;;;;5057781;28;20071;-67
2021/12/09 08:47:50;;;;;;;20.63;9.23;;;4.20;99.90;;;;;;5057587;28;20065;-67
2021/12/09 08:50:19;;;;;;;21.80;8.97;;;4.20;99.90;;;;;;5039639;28;20028;-67
2021/12/09 08:52:46;;;;;;;17.73;9.48;;;4.10;99.90;;;;;;5057755;28;20032;-67
2021/12/09 08:55:12;;;;;;;17.85;8.88;;;4.20;99.90;;;;;;5058083;28;20112;-67
2021/12/09 08:57:38;;;;;;;14.30;9.07;;;4.10;99.90;;;;;;5039753;28;20052;-67
2021/12/09 09:00:11;;;;;;;23.15;11.23;;;4.10;99.90;;;;;;5038865;28;20457;-67
2021/12/09 09:02:40;;;;;;;18.75;9.45;;;4.00;99.90;;;;;;5038960;28;20036;-66
2021/12/09 09:05:08;;;;;;;16.63;9.77;;;4.00;99.90;;;;;;5056688;28;20051;-66
2021/12/09 09:07:34;;;;;;;20.40;8.95;;;4.00;99.90;;;;;;5056213;28;20104;-66
2021/12/09 09:09:59;;;;;;;28.13;10.27;;;4.00;99.90;;;;;;5057374;28;20067;-67
2021/12/09 09:12:28;;;;;;;20.90;9.47;;;4.00;99.90;;;;;;5039569;28;20028;-67
2021/12/09 09:14:54;;;;;;;15.63;9.18;;;4.10;99.90;;;;;;5057756;28;20017;-66
2021/12/09 09:17:19;;;;;;;15.80;7.88;;;4.10;99.90;;;;;;5058136;28;20025;-66
2021/12/09 09:19:45;;;;;;;19.87;8.83;;;4.20;99.90;;;;;;5057749;28;20366;-68
2021/12/09 09:22:13;;;;;;;14.87;8.60;;;4.30;99.90;;;;;;5057945;28;20037;-67
2021/12/09 09:24:39;;;;;;;19.30;7.88;;;4.30;99.90;;;;;;5039729;28;20025;-67
2021/12/09 09:27:05;;;;;;;19.30;7.82;;;4.40;99.90;;;;;;5057913;28;20084;-67
2021/12/09 09:29:33;;;;;;;27.17;11.20;;;4.30;99.90;;;;;;5057537;28;20463;-67
2021/12/09 09:31:58;;;;;;;18.88;8.45;;;4.30;99.90;;;;;;5057315;28;20024;-67
2021/12/09 09:34:24;;;;;;;13.37;6.93;;;4.40;99.90;;;;;;5056848;28;20474;-67
2021/12/09 09:36:50;;;;;;;19.97;7.70;;;4.40;99.90;;;;;;5038787;28;20025;-67
2021/12/09 09:39:20;;;;;;;18.23;8.70;;;4.50;99.90;;;;;;5057427;28;20051;-66
2021/12/09 09:42:56;;;;;;;12.30;7.65;;;4.50;99.90;;;;;;5039333;28;20431;-66
2021/12/09 09:44:55;;;;;;;15.48;8.52;;;4.50;99.90;;;;;;5047603;28;20495;-67
2021/12/09 09:47:23;;;;;;;17.02;7.85;;;4.70;99.90;;;;;;5057853;28;20028;-66
2021/12/09 09:49:50;;;;;;;17.70;7.32;;;4.70;99.90;;;;;;5039664;28;20628;-67
2021/12/09 09:52:16;;;;;;;20.17;9.50;;;4.70;99.90;;;;;;5056771;28;20079;-66
2021/12/09 09:54:42;;;;;;;15.13;7.00;;;4.70;99.90;;;;;;5057511;28;20029;-66
2021/12/09 09:57:08;;;;;;;13.30;6.72;;;4.70;99.90;;;;;;5058020;28;20037;-66
2021/12/09 09:59:36;;;;;;;18.23;7.10;;;4.80;99.90;;;;;;5056447;28;20088;-66
2021/12/09 10:02:03;;;;;;;18.48;7.75;;;4.90;99.90;;;;;;5056545;28;20059;-67
2021/12/09 10:04:36;;;;;;;12.00;6.38;;;4.90;99.90;;;;;;5058003;28;20024;-67
2021/12/09 10:07:05;;;;;;;14.95;8.30;;;5.00;99.90;;;;;;5039673;28;20037;-67
2021/12/09 10:09:32;;;;;;;13.43;7.38;;;5.00;99.90;;;;;;5057732;28;20436;-67
2021/12/09 10:11:59;;;;;;;13.70;6.18;;;4.90;99.90;;;;;;5056986;28;20029;-66
2021/12/09 10:14:28;;;;;;;14.15;7.00;;;4.80;99.90;;;;;;5057169;28;20025;-68
2021/12/09 10:17:27;;;;;;;13.73;7.03;;;4.70;99.90;;;;;;5057206;28;20024;-68
2021/12/09 10:20:01;;;;;;;15.48;7.38;;;4.60;99.90;;;;;;5038514;28;20534;-68
2021/12/09 10:22:35;;;;;;;12.30;6.45;;;4.50;99.90;;;;;;5056651;28;20067;-68
2021/12/09 10:25:14;;;;;;;18.65;6.05;;;4.60;99.90;;;;;;5039526;28;20056;-68
2021/12/09 10:27:45;;;;;;;13.27;6.25;;;4.60;99.90;;;;;;5038820;28;20033;-66
2021/12/09 10:30:15;;;;;;;18.00;6.80;;;4.60;99.90;;;;;;5055462;28;20085;-67
2021/12/09 10:32:43;;;;;;;12.15;5.85;;;4.60;99.90;;;;;;5037268;28;20047;-66
2021/12/09 10:35:15;;;;;;;9.60;5.18;;;4.70;99.90;;;;;;5055475;28;20021;-67
2021/12/09 10:37:43;;;;;;;10.73;5.43;;;4.70;99.90;;;;;;5037649;28;20025;-67
2021/12/09 10:40:16;;;;;;;13.35;5.70;;;4.70;99.90;;;;;;5055256;28;20458;-67
2021/12/09 10:42:50;;;;;;;8.80;5.55;;;4.70;99.90;;;;;;5037269;28;20128;-67
2021/12/09 10:45:23;;;;;;;11.65;4.68;;;4.80;99.90;;;;;;5054170;28;20028;-67
2021/12/09 10:48:16;;;;;;;13.10;4.78;;;4.70;99.90;;;;;;5054469;28;20434;-67
2021/12/09 10:50:53;;;;;;;12.65;5.47;;;4.60;99.90;;;;;;5054661;28;20036;-67
2021/12/09 10:55:59;;;;;;;21.63;6.65;;;4.70;99.90;;;;;;5054464;28;20029;-67
2021/12/09 10:58:37;;;;;;;11.07;4.88;;;4.70;99.90;;;;;;5054528;28;20029;-67
2021/12/09 11:01:10;;;;;;;15.77;5.40;;;4.60;99.90;;;;;;5054440;28;20027;-67
2021/12/09 11:03:43;;;;;;;12.63;5.57;;;4.60;99.90;;;;;;5036090;28;20474;-67
2021/12/09 11:06:12;;;;;;;10.27;4.78;;;4.60;99.90;;;;;;5055386;28;20136;-67
2021/12/09 11:08:46;;;;;;;13.25;5.05;;;4.60;99.90;;;;;;5036893;28;20078;-67
2021/12/09 11:11:15;;;;;;;8.90;4.07;;;4.50;99.90;;;;;;5055209;28;20426;-67
2021/12/09 11:14:00;;;;;;;10.02;4.22;;;4.60;99.90;;;;;;5055686;28;20047;-67
2021/12/09 11:16:30;;;;;;;14.57;4.43;;;4.60;99.90;;;;;;5055085;28;20060;-66
2021/12/09 11:19:10;;;;;;;15.18;4.43;;;4.60;99.90;;;;;;5055402;28;20066;-66
2021/12/09 11:21:41;;;;;;;21.27;10.93;;;4.60;99.90;;;;;;5055865;28;20026;-67
2021/12/09 11:24:14;;;;;;;16.55;5.97;;;4.60;99.90;;;;;;5037251;28;20021;-67
2021/12/09 11:26:55;;;;;;;13.00;5.95;;;4.60;99.90;;;;;;5055487;28;20021;-66
2021/12/09 11:29:28;;;;;;;15.93;5.30;;;4.60;99.90;;;;;;5054806;28;20437;-66
2021/12/09 11:32:19;;;;;;;10.07;4.40;;;4.70;99.90;;;;;;5054744;28;20166;-66
2021/12/09 11:34:50;;;;;;;29.38;11.73;;;4.70;99.90;;;;;;5054241;28;20017;-67
2021/12/09 11:40:36;;;;;;;8.75;3.75;;;4.70;99.90;;;;;;5043300;28;20100;-66
2021/12/09 11:43:04;;;;;;;9.52;3.70;;;4.80;99.90;;;;;;5054498;28;20074;-66
2021/12/09 11:45:50;;;;;;;12.05;4.85;;;4.70;99.90;;;;;;5037269;28;20029;-66
2021/12/09 11:48:17;;;;;;;8.93;3.10;;;4.70;99.90;;;;;;5057600;28;20051;-66
2021/12/09 11:50:48;;;;;;;10.57;3.50;;;4.80;99.90;;;;;;5059259;28;20049;-67
2021/12/09 11:53:19;;;;;;;11.43;3.55;;;4.80;99.90;;;;;;5040147;28;20083;-66
2021/12/09 11:56:00;;;;;;;14.30;3.85;;;4.90;99.90;;;;;;5058998;28;20059;-66
2021/12/09 11:58:31;;;;;;;21.38;4.80;;;5.00;99.90;;;;;;5058545;28;20025;-66
2021/12/09 12:12:44;;;;;;;10.35;4.03;;;5.10;99.90;;;;;;5057757;28;20028;-67
2021/12/09 12:18:37;;;;;;;9.25;2.58;;;5.20;99.90;;;;;;5058310;28;20061;-67
2021/12/09 12:27:02;;;;;;;11.02;2.65;;;5.50;99.90;;;;;;5059507;28;20071;-67
2021/12/09 12:30:47;;;;;;;9.93;2.40;;;5.50;99.90;;;;;;5041176;28;20029;-66
2021/12/09 12:33:15;;;;;;;9.30;2.95;;;5.60;99.90;;;;;;5050986;28;20393;-66
2021/12/09 12:36:02;;;;;;;10.75;2.58;;;5.60;99.90;;;;;;5058905;28;20032;-66
2021/12/09 12:41:06;;;;;;;13.47;3.27;;;5.60;99.90;;;;;;5057454;28;20100;-66
2021/12/09 12:43:37;;;;;;;10.48;2.78;;;5.70;99.90;;;;;;5056247;28;20100;-67
2021/12/09 12:51:36;;;;;;;9.30;2.40;;;5.80;99.90;;;;;;5055594;28;20060;-66
2021/12/09 12:54:18;;;;;;;11.65;2.80;;;5.80;99.90;;;;;;5055658;28;20028;-66
2021/12/09 12:56:47;;;;;;;8.93;2.58;;;5.70;99.90;;;;;;5038050;28;20021;-67
2021/12/09 12:59:16;;;;;;;12.35;3.03;;;5.70;99.90;;;;;;5038091;28;20441;-66
2021/12/09 13:02:13;;;;;;;12.27;2.45;;;5.70;99.90;;;;;;5055258;28;20131;-67
2021/12/09 13:07:32;;;;;;;;;;;5.70;99.90;;;;;;5056300;28;20088;-67
2021/12/09 13:16:14;;;;;;;13.52;2.75;;;5.90;99.90;;;;;;5057546;28;20419;-67
2021/12/09 13:18:59;;;;;;;8.63;2.42;;;6.00;99.90;;;;;;5036943;28;20027;-66
2021/12/09 13:21:34;;;;;;;12.73;2.78;;;6.00;99.90;;;;;;5054687;28;20029;-67
2021/12/09 13:24:25;;;;;;;9.55;2.40;;;6.00;99.90;;;;;;5054824;28;20386;-67
2021/12/09 13:27:44;;;;;;;15.18;2.92;;;6.00;99.90;;;;;;5036869;28;20025;-66
2021/12/09 13:30:32;;;;;;;14.07;3.63;;;6.00;99.90;;;;;;5055833;28;20470;-68
2021/12/09 13:35:56;;;;;;;10.15;3.05;;;5.90;99.90;;;;;;5054660;28;20031;-67
2021/12/09 13:55:17;;;;;;;23.70;4.10;;;6.00;99.90;;;;;;5055580;28;20028;-68
2021/12/09 13:57:54;;;;;;;12.15;2.42;;;6.00;99.90;;;;;;5038059;28;20017;-67
2021/12/09 14:00:26;;;;;;;7.85;2.60;;;6.10;99.90;;;;;;5038157;28;20485;-67
2021/12/09 14:03:05;;;;;;;18.90;3.70;;;6.00;99.90;;;;;;5038818;28;20039;-67
2021/12/09 14:05:52;;;;;;;11.60;3.10;;;6.00;99.90;;;;;;5055262;28;20462;-66